sensor_id;sensor_type;location;lat;lon;timestamp;P1;durP1;ratioP1;P2;durP2;ratioP2
57635;SDS011;43465;50.728;4.160;2022-09-17T00:01:53;7.10;;;0.90;;
57635;SDS011;43465;50.728;4.160;2022-09-17T00:04:18;4.35;;;0.90;;
57635;SDS011;43465;50.728;4.160;2022-09-17T00:06:44;3.13;;;1.00;;
57635;SDS011;43465;50.728;4.160;2022-09-17T00:09:10;7.35;;;1.20;;
57635;SDS011;43465;50.728;4.160;2022-09-17T00:11:37;6.13;;;1.20;;
57635;SDS011;43465;50.728;4.160;2022-09-17T00:14:05;5.25;;;1.05;;
57635;SDS011;43465;50.728;4.160;2022-09-17T00:16:37;4.60;;;0.82;;
57635;SDS011;43465;50.728;4.160;2022-09-17T00:19:05;4.35;;;1.13;;
57635;SDS011;43465;50.728;4.160;2022-09-17T00:21:33;5.35;;;0.70;;
57635;SDS011;43465;50.728;4.160;2022-09-17T00:23:59;3.75;;;0.95;;
57635;SDS011;43465;50.728;4.160;2022-09-17T00:26:27;3.30;;;0.95;;
57635;SDS011;43465;50.728;4.160;2022-09-17T00:28:54;4.03;;;0.90;;
57635;SDS011;43465;50.728;4.160;2022-09-17T00:31:21;5.47;;;1.33;;
57635;SDS011;43465;50.728;4.160;2022-09-17T00:33:48;5.95;;;0.85;;
57635;SDS011;43465;50.728;4.160;2022-09-17T00:36:13;7.03;;;1.00;;
57635;SDS011;43465;50.728;4.160;2022-09-17T00:38:39;2.33;;;0.60;;
57635;SDS011;43465;50.728;4.160;2022-09-17T00:41:05;3.97;;;0.80;;
57635;SDS011;43465;50.728;4.160;2022-09-17T00:43:42;5.28;;;0.90;;
57635;SDS011;43465;50.728;4.160;2022-09-17T00:48:48;4.88;;;1.08;;
57635;SDS011;43465;50.728;4.160;2022-09-17T00:51:16;6.97;;;1.20;;
57635;SDS011;43465;50.728;4.160;2022-09-17T00:53:44;6.57;;;1.00;;
57635;SDS011;43465;50.728;4.160;2022-09-17T00:56:13;6.95;;;1.15;;
57635;SDS011;43465;50.728;4.160;2022-09-17T00:58:50;6.47;;;1.08;;
57635;SDS011;43465;50.728;4.160;2022-09-17T01:01:16;4.82;;;1.10;;
57635;SDS011;43465;50.728;4.160;2022-09-17T01:03:43;9.63;;;1.23;;
57635;SDS011;43465;50.728;4.160;2022-09-17T01:06:12;6.22;;;0.98;;
57635;SDS011;43465;50.728;4.160;2022-09-17T01:11:38;6.80;;;1.35;;
57635;SDS011;43465;50.728;4.160;2022-09-17T01:14:18;6.13;;;0.90;;
57635;SDS011;43465;50.728;4.160;2022-09-17T01:33:47;7.93;;;1.15;;
57635;SDS011;43465;50.728;4.160;2022-09-17T01:36:48;6.95;;;1.20;;
57635;SDS011;43465;50.728;4.160;2022-09-17T01:39:46;6.78;;;1.27;;
57635;SDS011;43465;50.728;4.160;2022-09-17T01:42:18;13.02;;;1.63;;
57635;SDS011;43465;50.728;4.160;2022-09-17T01:44:54;8.10;;;1.40;;
57635;SDS011;43465;50.728;4.160;2022-09-17T01:50:00;9.70;;;1.67;;
57635;SDS011;43465;50.728;4.160;2022-09-17T01:52:37;8.52;;;1.45;;
57635;SDS011;43465;50.728;4.160;2022-09-17T01:55:07;7.65;;;1.40;;
57635;SDS011;43465;50.728;4.160;2022-09-17T01:57:36;10.73;;;1.65;;
57635;SDS011;43465;50.728;4.160;2022-09-17T02:00:12;10.52;;;1.52;;
57635;SDS011;43465;50.728;4.160;2022-09-17T02:05:35;11.07;;;1.55;;
57635;SDS011;43465;50.728;4.160;2022-09-17T02:08:09;8.95;;;1.17;;
57635;SDS011;43465;50.728;4.160;2022-09-17T02:10:43;5.63;;;1.30;;
57635;SDS011;43465;50.728;4.160;2022-09-17T02:13:15;7.90;;;1.58;;
57635;SDS011;43465;50.728;4.160;2022-09-17T02:15:52;7.60;;;1.60;;
57635;SDS011;43465;50.728;4.160;2022-09-17T02:18:29;9.93;;;1.40;;
57635;SDS011;43465;50.728;4.160;2022-09-17T02:21:10;9.70;;;1.55;;
57635;SDS011;43465;50.728;4.160;2022-09-17T02:23:42;7.65;;;1.40;;
57635;SDS011;43465;50.728;4.160;2022-09-17T02:26:14;7.60;;;1.55;;
57635;SDS011;43465;50.728;4.160;2022-09-17T02:31:14;8.82;;;1.90;;
57635;SDS011;43465;50.728;4.160;2022-09-17T02:33:41;9.90;;;1.30;;
57635;SDS011;43465;50.728;4.160;2022-09-17T02:36:10;8.40;;;1.48;;
57635;SDS011;43465;50.728;4.160;2022-09-17T02:38:37;5.95;;;1.13;;
57635;SDS011;43465;50.728;4.160;2022-09-17T02:48:50;9.05;;;1.40;;
57635;SDS011;43465;50.728;4.160;2022-09-17T02:54:41;8.98;;;1.75;;
57635;SDS011;43465;50.728;4.160;2022-09-17T02:57:29;9.77;;;1.40;;
57635;SDS011;43465;50.728;4.160;2022-09-17T03:05:07;9.50;;;1.35;;
57635;SDS011;43465;50.728;4.160;2022-09-17T03:07:33;14.77;;;1.90;;
57635;SDS011;43465;50.728;4.160;2022-09-17T03:10:00;13.27;;;1.60;;
57635;SDS011;43465;50.728;4.160;2022-09-17T03:12:26;11.85;;;1.92;;
57635;SDS011;43465;50.728;4.160;2022-09-17T03:14:52;11.25;;;1.67;;
57635;SDS011;43465;50.728;4.160;2022-09-17T03:17:17;15.55;;;2.20;;
57635;SDS011;43465;50.728;4.160;2022-09-17T03:19:43;13.40;;;1.75;;
57635;SDS011;43465;50.728;4.160;2022-09-17T03:22:08;20.48;;;2.75;;
57635;SDS011;43465;50.728;4.160;2022-09-17T03:24:34;14.27;;;2.22;;
57635;SDS011;43465;50.728;4.160;2022-09-17T03:27:00;14.45;;;1.92;;
57635;SDS011;43465;50.728;4.160;2022-09-17T03:29:25;13.60;;;2.00;;
57635;SDS011;43465;50.728;4.160;2022-09-17T03:31:51;11.77;;;1.70;;
57635;SDS011;43465;50.728;4.160;2022-09-17T03:34:17;10.23;;;1.80;;
57635;SDS011;43465;50.728;4.160;2022-09-17T03:36:42;22.08;;;1.90;;
57635;SDS011;43465;50.728;4.160;2022-09-17T03:39:08;15.07;;;2.30;;
57635;SDS011;43465;50.728;4.160;2022-09-17T03:41:33;12.70;;;1.90;;
57635;SDS011;43465;50.728;4.160;2022-09-17T03:43:59;13.45;;;1.52;;
57635;SDS011;43465;50.728;4.160;2022-09-17T03:46:25;13.07;;;2.08;;
57635;SDS011;43465;50.728;4.160;2022-09-17T03:48:51;13.50;;;1.75;;
57635;SDS011;43465;50.728;4.160;2022-09-17T03:51:16;10.02;;;1.70;;
57635;SDS011;43465;50.728;4.160;2022-09-17T03:53:42;18.13;;;2.28;;
57635;SDS011;43465;50.728;4.160;2022-09-17T03:56:08;17.98;;;2.05;;
57635;SDS011;43465;50.728;4.160;2022-09-17T03:58:33;10.63;;;2.00;;
57635;SDS011;43465;50.728;4.160;2022-09-17T04:00:59;14.93;;;2.40;;
57635;SDS011;43465;50.728;4.160;2022-09-17T04:03:27;12.85;;;2.10;;
57635;SDS011;43465;50.728;4.160;2022-09-17T04:05:53;15.32;;;2.72;;
57635;SDS011;43465;50.728;4.160;2022-09-17T04:08:19;24.58;;;2.58;;
57635;SDS011;43465;50.728;4.160;2022-09-17T04:10:44;18.05;;;2.28;;
57635;SDS011;43465;50.728;4.160;2022-09-17T04:13:11;17.63;;;2.38;;
57635;SDS011;43465;50.728;4.160;2022-09-17T04:15:38;16.33;;;2.30;;
57635;SDS011;43465;50.728;4.160;2022-09-17T04:18:03;19.38;;;2.70;;
57635;SDS011;43465;50.728;4.160;2022-09-17T04:20:29;11.70;;;2.38;;
57635;SDS011;43465;50.728;4.160;2022-09-17T04:22:55;19.48;;;2.88;;
57635;SDS011;43465;50.728;4.160;2022-09-17T04:25:21;14.70;;;2.20;;
57635;SDS011;43465;50.728;4.160;2022-09-17T04:27:47;14.63;;;2.30;;
57635;SDS011;43465;50.728;4.160;2022-09-17T04:30:13;15.02;;;2.00;;
57635;SDS011;43465;50.728;4.160;2022-09-17T04:32:39;19.00;;;2.10;;
57635;SDS011;43465;50.728;4.160;2022-09-17T04:35:05;11.43;;;2.33;;
57635;SDS011;43465;50.728;4.160;2022-09-17T04:37:31;10.75;;;2.53;;
57635;SDS011;43465;50.728;4.160;2022-09-17T04:39:58;13.27;;;2.40;;
57635;SDS011;43465;50.728;4.160;2022-09-17T04:42:23;17.52;;;2.90;;
57635;SDS011;43465;50.728;4.160;2022-09-17T04:44:52;12.88;;;2.70;;
57635;SDS011;43465;50.728;4.160;2022-09-17T04:47:18;14.52;;;2.55;;
57635;SDS011;43465;50.728;4.160;2022-09-17T04:49:44;12.60;;;1.80;;
57635;SDS011;43465;50.728;4.160;2022-09-17T04:52:09;11.05;;;2.22;;
57635;SDS011;43465;50.728;4.160;2022-09-17T04:54:35;16.60;;;2.85;;
57635;SDS011;43465;50.728;4.160;2022-09-17T04:57:01;14.13;;;2.47;;
57635;SDS011;43465;50.728;4.160;2022-09-17T04:59:27;13.35;;;2.85;;
57635;SDS011;43465;50.728;4.160;2022-09-17T05:01:52;16.15;;;3.00;;
57635;SDS011;43465;50.728;4.160;2022-09-17T05:04:19;15.20;;;2.95;;
57635;SDS011;43465;50.728;4.160;2022-09-17T05:06:44;15.18;;;2.75;;
57635;SDS011;43465;50.728;4.160;2022-09-17T05:09:10;14.55;;;2.33;;
57635;SDS011;43465;50.728;4.160;2022-09-17T05:11:36;15.65;;;2.70;;
57635;SDS011;43465;50.728;4.160;2022-09-17T05:14:01;12.95;;;2.50;;
57635;SDS011;43465;50.728;4.160;2022-09-17T05:16:27;16.33;;;2.10;;
57635;SDS011;43465;50.728;4.160;2022-09-17T05:18:53;14.45;;;2.55;;
57635;SDS011;43465;50.728;4.160;2022-09-17T05:21:19;9.75;;;2.60;;
57635;SDS011;43465;50.728;4.160;2022-09-17T05:23:45;16.48;;;2.33;;
57635;SDS011;43465;50.728;4.160;2022-09-17T05:26:12;12.38;;;2.50;;
57635;SDS011;43465;50.728;4.160;2022-09-17T05:28:38;11.75;;;2.67;;
57635;SDS011;43465;50.728;4.160;2022-09-17T05:31:03;19.20;;;2.30;;
57635;SDS011;43465;50.728;4.160;2022-09-17T05:33:29;17.10;;;2.85;;
57635;SDS011;43465;50.728;4.160;2022-09-17T05:35:55;13.57;;;2.40;;
57635;SDS011;43465;50.728;4.160;2022-09-17T05:38:20;17.05;;;1.90;;
57635;SDS011;43465;50.728;4.160;2022-09-17T05:40:46;8.80;;;1.90;;
57635;SDS011;43465;50.728;4.160;2022-09-17T05:43:13;11.60;;;2.35;;
57635;SDS011;43465;50.728;4.160;2022-09-17T05:45:39;13.77;;;1.80;;
57635;SDS011;43465;50.728;4.160;2022-09-17T05:48:05;12.30;;;1.83;;
57635;SDS011;43465;50.728;4.160;2022-09-17T05:50:34;10.93;;;1.60;;
57635;SDS011;43465;50.728;4.160;2022-09-17T05:53:12;12.35;;;1.70;;
57635;SDS011;43465;50.728;4.160;2022-09-17T05:55:39;8.07;;;1.98;;
57635;SDS011;43465;50.728;4.160;2022-09-17T05:58:24;7.75;;;1.50;;
57635;SDS011;43465;50.728;4.160;2022-09-17T06:00:53;14.52;;;1.98;;
57635;SDS011;43465;50.728;4.160;2022-09-17T06:03:19;12.48;;;2.05;;
57635;SDS011;43465;50.728;4.160;2022-09-17T06:05:53;9.50;;;1.88;;
57635;SDS011;43465;50.728;4.160;2022-09-17T06:08:22;10.45;;;1.65;;
57635;SDS011;43465;50.728;4.160;2022-09-17T06:10:48;8.45;;;1.70;;
57635;SDS011;43465;50.728;4.160;2022-09-17T06:13:14;7.05;;;1.70;;
57635;SDS011;43465;50.728;4.160;2022-09-17T06:15:41;9.93;;;1.60;;
57635;SDS011;43465;50.728;4.160;2022-09-17T06:18:06;9.23;;;1.90;;
57635;SDS011;43465;50.728;4.160;2022-09-17T06:20:32;8.85;;;1.83;;
57635;SDS011;43465;50.728;4.160;2022-09-17T06:22:58;7.43;;;1.90;;
57635;SDS011;43465;50.728;4.160;2022-09-17T06:25:24;8.95;;;1.70;;
57635;SDS011;43465;50.728;4.160;2022-09-17T06:27:50;8.02;;;1.40;;
57635;SDS011;43465;50.728;4.160;2022-09-17T06:30:16;9.40;;;1.63;;
57635;SDS011;43465;50.728;4.160;2022-09-17T06:32:42;14.90;;;1.67;;
57635;SDS011;43465;50.728;4.160;2022-09-17T06:35:08;10.73;;;1.70;;
57635;SDS011;43465;50.728;4.160;2022-09-17T06:37:36;8.55;;;1.75;;
57635;SDS011;43465;50.728;4.160;2022-09-17T06:40:06;4.82;;;1.30;;
57635;SDS011;43465;50.728;4.160;2022-09-17T06:42:32;11.68;;;1.73;;
57635;SDS011;43465;50.728;4.160;2022-09-17T06:44:57;8.25;;;1.80;;
57635;SDS011;43465;50.728;4.160;2022-09-17T06:47:26;9.45;;;1.67;;
57635;SDS011;43465;50.728;4.160;2022-09-17T06:49:52;7.65;;;1.70;;
57635;SDS011;43465;50.728;4.160;2022-09-17T06:52:20;8.77;;;1.55;;
57635;SDS011;43465;50.728;4.160;2022-09-17T06:54:46;9.32;;;1.80;;
57635;SDS011;43465;50.728;4.160;2022-09-17T06:57:12;10.82;;;1.85;;
57635;SDS011;43465;50.728;4.160;2022-09-17T06:59:38;6.75;;;1.40;;
57635;SDS011;43465;50.728;4.160;2022-09-17T07:02:03;6.85;;;1.60;;
57635;SDS011;43465;50.728;4.160;2022-09-17T07:04:29;11.13;;;1.77;;
57635;SDS011;43465;50.728;4.160;2022-09-17T07:06:55;8.70;;;1.33;;
57635;SDS011;43465;50.728;4.160;2022-09-17T07:09:20;6.70;;;1.45;;
57635;SDS011;43465;50.728;4.160;2022-09-17T07:11:46;8.65;;;1.58;;
57635;SDS011;43465;50.728;4.160;2022-09-17T07:14:15;6.70;;;1.55;;
57635;SDS011;43465;50.728;4.160;2022-09-17T07:16:40;7.28;;;1.20;;
57635;SDS011;43465;50.728;4.160;2022-09-17T07:19:06;11.77;;;1.90;;
57635;SDS011;43465;50.728;4.160;2022-09-17T07:21:31;8.40;;;1.48;;
57635;SDS011;43465;50.728;4.160;2022-09-17T07:23:57;7.53;;;1.35;;
57635;SDS011;43465;50.728;4.160;2022-09-17T07:26:26;10.75;;;1.70;;
57635;SDS011;43465;50.728;4.160;2022-09-17T07:28:52;10.68;;;2.05;;
57635;SDS011;43465;50.728;4.160;2022-09-17T07:31:17;7.75;;;1.55;;
57635;SDS011;43465;50.728;4.160;2022-09-17T07:33:43;8.32;;;1.70;;
57635;SDS011;43465;50.728;4.160;2022-09-17T07:36:10;6.43;;;1.40;;
57635;SDS011;43465;50.728;4.160;2022-09-17T07:38:40;8.52;;;1.60;;
57635;SDS011;43465;50.728;4.160;2022-09-17T07:41:08;9.48;;;1.65;;
57635;SDS011;43465;50.728;4.160;2022-09-17T07:43:38;10.90;;;1.67;;
57635;SDS011;43465;50.728;4.160;2022-09-17T07:46:05;6.50;;;1.35;;
57635;SDS011;43465;50.728;4.160;2022-09-17T07:48:32;8.88;;;1.55;;
57635;SDS011;43465;50.728;4.160;2022-09-17T07:50:58;6.63;;;1.45;;
57635;SDS011;43465;50.728;4.160;2022-09-17T07:53:24;7.05;;;1.33;;
57635;SDS011;43465;50.728;4.160;2022-09-17T07:55:51;3.10;;;1.23;;
57635;SDS011;43465;50.728;4.160;2022-09-17T07:58:18;7.28;;;1.40;;
57635;SDS011;43465;50.728;4.160;2022-09-17T08:00:44;5.22;;;1.20;;
57635;SDS011;43465;50.728;4.160;2022-09-17T08:03:10;4.40;;;1.20;;
57635;SDS011;43465;50.728;4.160;2022-09-17T08:05:36;6.15;;;1.40;;
57635;SDS011;43465;50.728;4.160;2022-09-17T08:08:02;7.18;;;1.33;;
57635;SDS011;43465;50.728;4.160;2022-09-17T08:10:30;7.47;;;0.98;;
57635;SDS011;43465;50.728;4.160;2022-09-17T08:12:56;5.72;;;1.38;;
57635;SDS011;43465;50.728;4.160;2022-09-17T08:15:22;7.05;;;1.20;;
57635;SDS011;43465;50.728;4.160;2022-09-17T08:17:53;5.65;;;1.45;;
57635;SDS011;43465;50.728;4.160;2022-09-17T08:20:19;4.60;;;1.23;;
57635;SDS011;43465;50.728;4.160;2022-09-17T08:22:45;5.85;;;1.13;;
57635;SDS011;43465;50.728;4.160;2022-09-17T08:25:13;4.82;;;1.27;;
57635;SDS011;43465;50.728;4.160;2022-09-17T08:27:45;4.20;;;1.20;;
57635;SDS011;43465;50.728;4.160;2022-09-17T08:30:11;3.53;;;1.00;;
57635;SDS011;43465;50.728;4.160;2022-09-17T08:32:37;6.10;;;0.98;;
57635;SDS011;43465;50.728;4.160;2022-09-17T08:35:05;3.47;;;1.05;;
57635;SDS011;43465;50.728;4.160;2022-09-17T08:37:31;2.47;;;0.98;;
57635;SDS011;43465;50.728;4.160;2022-09-17T08:39:57;5.43;;;1.33;;
57635;SDS011;43465;50.728;4.160;2022-09-17T08:45:02;6.47;;;1.40;;
57635;SDS011;43465;50.728;4.160;2022-09-17T08:47:33;5.28;;;0.90;;
57635;SDS011;43465;50.728;4.160;2022-09-17T08:50:03;7.78;;;1.23;;
57635;SDS011;43465;50.728;4.160;2022-09-17T09:06:26;6.93;;;1.10;;
57635;SDS011;43465;50.728;4.160;2022-09-17T09:09:04;4.28;;;1.08;;
57635;SDS011;43465;50.728;4.160;2022-09-17T09:11:45;7.03;;;1.25;;
57635;SDS011;43465;50.728;4.160;2022-09-17T09:14:23;8.43;;;1.42;;
57635;SDS011;43465;50.728;4.160;2022-09-17T09:16:55;7.03;;;1.23;;
57635;SDS011;43465;50.728;4.160;2022-09-17T09:19:26;9.05;;;1.08;;
57635;SDS011;43465;50.728;4.160;2022-09-17T09:22:01;7.13;;;1.20;;
57635;SDS011;43465;50.728;4.160;2022-09-17T09:24:32;5.85;;;1.20;;
57635;SDS011;43465;50.728;4.160;2022-09-17T09:27:15;5.93;;;1.05;;
57635;SDS011;43465;50.728;4.160;2022-09-17T09:35:18;4.18;;;1.35;;
57635;SDS011;43465;50.728;4.160;2022-09-17T09:43:23;6.45;;;1.25;;
57635;SDS011;43465;50.728;4.160;2022-09-17T09:46:00;7.20;;;1.27;;
57635;SDS011;43465;50.728;4.160;2022-09-17T09:48:58;4.38;;;1.10;;
57635;SDS011;43465;50.728;4.160;2022-09-17T09:54:23;5.47;;;1.50;;
57635;SDS011;43465;50.728;4.160;2022-09-17T09:59:22;6.82;;;0.95;;
57635;SDS011;43465;50.728;4.160;2022-09-17T10:01:49;4.32;;;1.00;;
57635;SDS011;43465;50.728;4.160;2022-09-17T10:04:20;5.10;;;1.13;;
57635;SDS011;43465;50.728;4.160;2022-09-17T10:06:51;2.08;;;0.70;;
57635;SDS011;43465;50.728;4.160;2022-09-17T10:09:18;2.05;;;0.80;;
57635;SDS011;43465;50.728;4.160;2022-09-17T10:14:37;1.73;;;0.60;;
57635;SDS011;43465;50.728;4.160;2022-09-17T10:22:28;1.10;;;0.40;;
57635;SDS011;43465;50.728;4.160;2022-09-17T10:24:57;3.38;;;0.68;;
57635;SDS011;43465;50.728;4.160;2022-09-17T10:27:25;1.95;;;0.65;;
57635;SDS011;43465;50.728;4.160;2022-09-17T10:32:32;3.42;;;0.60;;
57635;SDS011;43465;50.728;4.160;2022-09-17T10:34:59;4.78;;;0.70;;
57635;SDS011;43465;50.728;4.160;2022-09-17T10:37:34;2.33;;;0.50;;
57635;SDS011;43465;50.728;4.160;2022-09-17T10:40:23;1.10;;;0.50;;
57635;SDS011;43465;50.728;4.160;2022-09-17T10:45:36;2.60;;;0.50;;
57635;SDS011;43465;50.728;4.160;2022-09-17T10:48:11;3.08;;;0.70;;
57635;SDS011;43465;50.728;4.160;2022-09-17T10:50:53;1.77;;;0.60;;
57635;SDS011;43465;50.728;4.160;2022-09-17T10:53:20;2.42;;;0.43;;
57635;SDS011;43465;50.728;4.160;2022-09-17T11:09:09;4.35;;;0.68;;
57635;SDS011;43465;50.728;4.160;2022-09-17T11:17:52;2.95;;;0.65;;
57635;SDS011;43465;50.728;4.160;2022-09-17T11:28:30;4.40;;;1.10;;
57635;SDS011;43465;50.728;4.160;2022-09-17T11:39:13;9.00;;;1.50;;
57635;SDS011;43465;50.728;4.160;2022-09-17T11:41:43;3.45;;;0.82;;
57635;SDS011;43465;50.728;4.160;2022-09-17T11:44:14;3.28;;;1.17;;
57635;SDS011;43465;50.728;4.160;2022-09-17T11:46:58;3.83;;;0.90;;
57635;SDS011;43465;50.728;4.160;2022-09-17T11:52:25;5.47;;;1.33;;
57635;SDS011;43465;50.728;4.160;2022-09-17T11:57:50;6.15;;;1.10;;
57635;SDS011;43465;50.728;4.160;2022-09-17T12:00:22;6.30;;;1.50;;
57635;SDS011;43465;50.728;4.160;2022-09-17T12:02:52;2.83;;;1.02;;
57635;SDS011;43465;50.728;4.160;2022-09-17T12:05:35;3.28;;;0.98;;
57635;SDS011;43465;50.728;4.160;2022-09-17T12:11:00;5.63;;;0.80;;
57635;SDS011;43465;50.728;4.160;2022-09-17T12:16:24;5.13;;;0.90;;
57635;SDS011;43465;50.728;4.160;2022-09-17T12:21:45;3.77;;;1.17;;
57635;SDS011;43465;50.728;4.160;2022-09-17T12:24:22;3.47;;;1.02;;
57635;SDS011;43465;50.728;4.160;2022-09-17T12:35:00;5.60;;;1.15;;
57635;SDS011;43465;50.728;4.160;2022-09-17T12:51:59;11.20;;;1.50;;
57635;SDS011;43465;50.728;4.160;2022-09-17T12:57:22;9.48;;;1.63;;
57635;SDS011;43465;50.728;4.160;2022-09-17T13:00:08;6.10;;;1.67;;
57635;SDS011;43465;50.728;4.160;2022-09-17T13:21:52;12.13;;;2.15;;
57635;SDS011;43465;50.728;4.160;2022-09-17T13:24:24;10.70;;;2.03;;
57635;SDS011;43465;50.728;4.160;2022-09-17T13:26:54;9.80;;;1.83;;
57635;SDS011;43465;50.728;4.160;2022-09-17T13:32:52;7.47;;;1.77;;
57635;SDS011;43465;50.728;4.160;2022-09-17T13:40:05;7.22;;;1.65;;
57635;SDS011;43465;50.728;4.160;2022-09-17T13:42:46;8.18;;;1.63;;
57635;SDS011;43465;50.728;4.160;2022-09-17T13:45:15;6.80;;;1.35;;
57635;SDS011;43465;50.728;4.160;2022-09-17T13:50:25;6.07;;;1.17;;
57635;SDS011;43465;50.728;4.160;2022-09-17T13:52:52;4.38;;;1.20;;
57635;SDS011;43465;50.728;4.160;2022-09-17T13:57:55;8.13;;;1.60;;
57635;SDS011;43465;50.728;4.160;2022-09-17T14:05:53;3.72;;;0.77;;
57635;SDS011;43465;50.728;4.160;2022-09-17T14:09:05;8.98;;;1.00;;
57635;SDS011;43465;50.728;4.160;2022-09-17T14:13:54;3.42;;;0.82;;
57635;SDS011;43465;50.728;4.160;2022-09-17T14:30:11;7.03;;;1.50;;
57635;SDS011;43465;50.728;4.160;2022-09-17T14:35:16;7.70;;;1.10;;
57635;SDS011;43465;50.728;4.160;2022-09-17T14:38:25;6.95;;;1.25;;
57635;SDS011;43465;50.728;4.160;2022-09-17T14:41:26;4.65;;;1.02;;
57635;SDS011;43465;50.728;4.160;2022-09-17T14:44:00;3.75;;;1.00;;
57635;SDS011;43465;50.728;4.160;2022-09-17T14:46:41;4.97;;;1.30;;
57635;SDS011;43465;50.728;4.160;2022-09-17T14:49:24;6.28;;;1.25;;
57635;SDS011;43465;50.728;4.160;2022-09-17T14:51:52;5.40;;;1.13;;
57635;SDS011;43465;50.728;4.160;2022-09-17T15:04:52;5.28;;;1.02;;
57635;SDS011;43465;50.728;4.160;2022-09-17T15:07:19;7.90;;;1.10;;
57635;SDS011;43465;50.728;4.160;2022-09-17T15:09:46;8.77;;;1.48;;
57635;SDS011;43465;50.728;4.160;2022-09-17T15:12:13;5.93;;;1.05;;
57635;SDS011;43465;50.728;4.160;2022-09-17T15:14:42;5.03;;;0.77;;
57635;SDS011;43465;50.728;4.160;2022-09-17T15:17:11;6.18;;;1.25;;
57635;SDS011;43465;50.728;4.160;2022-09-17T15:19:40;6.28;;;1.00;;
57635;SDS011;43465;50.728;4.160;2022-09-17T15:22:16;4.40;;;0.82;;
57635;SDS011;43465;50.728;4.160;2022-09-17T15:27:53;5.75;;;0.90;;
57635;SDS011;43465;50.728;4.160;2022-09-17T15:30:22;3.80;;;0.93;;
57635;SDS011;43465;50.728;4.160;2022-09-17T15:32:52;5.13;;;0.90;;
57635;SDS011;43465;50.728;4.160;2022-09-17T15:35:29;3.53;;;0.80;;
57635;SDS011;43465;50.728;4.160;2022-09-17T15:37:57;6.05;;;0.95;;
57635;SDS011;43465;50.728;4.160;2022-09-17T15:40:38;2.97;;;0.80;;
57635;SDS011;43465;50.728;4.160;2022-09-17T15:45:51;2.83;;;0.75;;
57635;SDS011;43465;50.728;4.160;2022-09-17T15:50:56;1.88;;;0.60;;
57635;SDS011;43465;50.728;4.160;2022-09-17T15:53:24;1.92;;;0.75;;
57635;SDS011;43465;50.728;4.160;2022-09-17T15:58:27;5.55;;;1.30;;
57635;SDS011;43465;50.728;4.160;2022-09-17T16:08:50;3.15;;;1.33;;
57635;SDS011;43465;50.728;4.160;2022-09-17T16:11:18;4.18;;;1.10;;
57635;SDS011;43465;50.728;4.160;2022-09-17T16:13:45;1.95;;;0.80;;
57635;SDS011;43465;50.728;4.160;2022-09-17T16:16:16;3.38;;;0.90;;
57635;SDS011;43465;50.728;4.160;2022-09-17T16:18:47;6.93;;;1.50;;
57635;SDS011;43465;50.728;4.160;2022-09-17T16:21:14;2.92;;;1.00;;
57635;SDS011;43465;50.728;4.160;2022-09-17T16:23:43;4.65;;;1.25;;
57635;SDS011;43465;50.728;4.160;2022-09-17T16:26:14;4.55;;;1.30;;
57635;SDS011;43465;50.728;4.160;2022-09-17T16:28:45;6.28;;;1.15;;
57635;SDS011;43465;50.728;4.160;2022-09-17T16:31:13;4.45;;;1.33;;
57635;SDS011;43465;50.728;4.160;2022-09-17T16:33:39;2.90;;;1.23;;
57635;SDS011;43465;50.728;4.160;2022-09-17T16:36:05;8.05;;;1.50;;
57635;SDS011;43465;50.728;4.160;2022-09-17T16:38:31;4.95;;;0.93;;
57635;SDS011;43465;50.728;4.160;2022-09-17T16:40:57;5.40;;;1.38;;
57635;SDS011;43465;50.728;4.160;2022-09-17T16:43:23;3.10;;;1.27;;
57635;SDS011;43465;50.728;4.160;2022-09-17T16:45:58;4.70;;;1.27;;
57635;SDS011;43465;50.728;4.160;2022-09-17T16:48:28;8.52;;;2.22;;
57635;SDS011;43465;50.728;4.160;2022-09-17T16:50:54;5.65;;;1.30;;
57635;SDS011;43465;50.728;4.160;2022-09-17T16:53:19;4.43;;;1.25;;
57635;SDS011;43465;50.728;4.160;2022-09-17T16:55:45;6.32;;;1.20;;
57635;SDS011;43465;50.728;4.160;2022-09-17T16:58:11;2.88;;;0.80;;
57635;SDS011;43465;50.728;4.160;2022-09-17T17:00:36;7.40;;;1.15;;
57635;SDS011;43465;50.728;4.160;2022-09-17T17:03:02;6.05;;;1.20;;
57635;SDS011;43465;50.728;4.160;2022-09-17T17:05:29;2.50;;;0.90;;
57635;SDS011;43465;50.728;4.160;2022-09-17T17:07:56;3.45;;;0.95;;
57635;SDS011;43465;50.728;4.160;2022-09-17T17:10:22;3.00;;;0.95;;
57635;SDS011;43465;50.728;4.160;2022-09-17T17:12:50;5.05;;;1.20;;
57635;SDS011;43465;50.728;4.160;2022-09-17T17:15:16;5.00;;;1.17;;
57635;SDS011;43465;50.728;4.160;2022-09-17T17:17:43;4.95;;;1.13;;
57635;SDS011;43465;50.728;4.160;2022-09-17T17:20:09;5.72;;;1.48;;
57635;SDS011;43465;50.728;4.160;2022-09-17T17:22:37;7.10;;;1.40;;
57635;SDS011;43465;50.728;4.160;2022-09-17T17:25:04;5.90;;;1.30;;
57635;SDS011;43465;50.728;4.160;2022-09-17T17:27:30;5.40;;;1.50;;
57635;SDS011;43465;50.728;4.160;2022-09-17T17:29:56;3.88;;;1.70;;
57635;SDS011;43465;50.728;4.160;2022-09-17T17:32:22;7.13;;;1.70;;
57635;SDS011;43465;50.728;4.160;2022-09-17T17:34:48;4.63;;;1.35;;
57635;SDS011;43465;50.728;4.160;2022-09-17T17:37:15;6.07;;;1.58;;
57635;SDS011;43465;50.728;4.160;2022-09-17T17:39:41;8.23;;;1.77;;
57635;SDS011;43465;50.728;4.160;2022-09-17T17:42:06;6.57;;;1.23;;
57635;SDS011;43465;50.728;4.160;2022-09-17T17:44:32;6.30;;;1.48;;
57635;SDS011;43465;50.728;4.160;2022-09-17T17:46:58;5.65;;;1.60;;
57635;SDS011;43465;50.728;4.160;2022-09-17T17:49:24;4.90;;;1.63;;
57635;SDS011;43465;50.728;4.160;2022-09-17T17:51:50;7.40;;;1.25;;
57635;SDS011;43465;50.728;4.160;2022-09-17T17:54:17;6.05;;;1.20;;
57635;SDS011;43465;50.728;4.160;2022-09-17T17:56:43;6.95;;;1.50;;
57635;SDS011;43465;50.728;4.160;2022-09-17T17:59:09;7.88;;;1.77;;
57635;SDS011;43465;50.728;4.160;2022-09-17T18:01:35;8.25;;;1.40;;
57635;SDS011;43465;50.728;4.160;2022-09-17T18:04:02;7.35;;;1.60;;
57635;SDS011;43465;50.728;4.160;2022-09-17T18:06:32;9.75;;;1.95;;
57635;SDS011;43465;50.728;4.160;2022-09-17T18:08:58;5.03;;;1.60;;
57635;SDS011;43465;50.728;4.160;2022-09-17T18:11:25;9.13;;;1.60;;
57635;SDS011;43465;50.728;4.160;2022-09-17T18:13:52;5.28;;;1.55;;
57635;SDS011;43465;50.728;4.160;2022-09-17T18:16:19;9.93;;;1.90;;
57635;SDS011;43465;50.728;4.160;2022-09-17T18:18:45;7.35;;;1.90;;
57635;SDS011;43465;50.728;4.160;2022-09-17T18:21:21;5.65;;;1.73;;
57635;SDS011;43465;50.728;4.160;2022-09-17T18:23:48;5.97;;;2.03;;
57635;SDS011;43465;50.728;4.160;2022-09-17T18:26:15;7.28;;;2.40;;
57635;SDS011;43465;50.728;4.160;2022-09-17T18:28:42;6.53;;;1.60;;
57635;SDS011;43465;50.728;4.160;2022-09-17T18:33:54;5.88;;;1.60;;
57635;SDS011;43465;50.728;4.160;2022-09-17T18:36:21;5.25;;;1.77;;
57635;SDS011;43465;50.728;4.160;2022-09-17T18:38:51;6.75;;;1.55;;
57635;SDS011;43465;50.728;4.160;2022-09-17T18:41:18;5.25;;;1.30;;
57635;SDS011;43465;50.728;4.160;2022-09-17T18:43:43;3.95;;;1.13;;
57635;SDS011;43465;50.728;4.160;2022-09-17T18:46:09;7.43;;;1.67;;
57635;SDS011;43465;50.728;4.160;2022-09-17T18:48:35;6.70;;;1.58;;
57635;SDS011;43465;50.728;4.160;2022-09-17T18:51:02;5.90;;;1.35;;
57635;SDS011;43465;50.728;4.160;2022-09-17T18:53:30;4.72;;;1.33;;
57635;SDS011;43465;50.728;4.160;2022-09-17T18:56:04;7.25;;;1.55;;
57635;SDS011;43465;50.728;4.160;2022-09-17T18:58:36;6.38;;;1.98;;
57635;SDS011;43465;50.728;4.160;2022-09-17T19:01:05;6.57;;;1.42;;
57635;SDS011;43465;50.728;4.160;2022-09-17T19:03:31;6.50;;;1.73;;
57635;SDS011;43465;50.728;4.160;2022-09-17T19:06:01;8.23;;;2.05;;
57635;SDS011;43465;50.728;4.160;2022-09-17T19:08:28;9.00;;;1.60;;
57635;SDS011;43465;50.728;4.160;2022-09-17T19:10:54;6.30;;;1.50;;
57635;SDS011;43465;50.728;4.160;2022-09-17T19:13:21;6.70;;;1.60;;
57635;SDS011;43465;50.728;4.160;2022-09-17T19:15:47;8.10;;;1.90;;